Time;durP1;ratioP1;P1;durP2;ratioP2;P2;SDS_P1;SDS_P2;PMS_P1;PMS_P2;Temp;Humidity;BMP_temperature;BMP_pressure;BME280_temperature;BME280_humidity;BME280_pressure;Samples;Min_cycle;Max_cycle;Signal;HPM_P1;HPM_P2
2023/09/17 00:02:08;;;;;;;0.20;0.20;;;;;;;22.37;100.00;101374.59;10388616;28;20049;-78
2023/09/17 00:07:10;;;;;;;0.55;0.35;;;;;;;22.76;100.00;101378.34;10389564;28;20054;-77
2023/09/17 00:12:12;;;;;;;0.10;0.10;;;;;;;22.60;100.00;101376.88;10364212;28;20061;-77
2023/09/17 00:17:14;;;;;;;0.40;0.22;;;;;;;22.68;100.00;101385.47;10372294;28;20057;-76
2023/09/17 00:22:16;;;;;;;0.70;0.32;;;;;;;23.03;100.00;101381.38;10373818;28;20042;-77
2023/09/17 00:27:17;;;;;;;0.20;0.20;;;;;;;22.59;100.00;101388.28;10356001;28;20080;-77
2023/09/17 00:32:19;;;;;;;0.57;0.30;;;;;;;23.34;100.00;101377.31;10389688;28;20041;-77
2023/09/17 00:37:21;;;;;;;1.20;0.40;;;;;;;22.96;100.00;101396.38;10373217;28;20417;-76
2023/09/17 00:42:22;;;;;;;0.22;0.22;;;;;;;22.95;100.00;101401.66;10388232;28;20148;-77
2023/09/17 00:47:24;;;;;;;0.45;0.22;;;;;;;22.28;100.00;101401.84;10383364;28;20061;-80
2023/09/17 00:52:26;;;;;;;0.00;0.00;;;;;;;22.53;100.00;101391.84;10381465;28;20401;-82
2023/09/17 00:57:28;;;;;;;0.22;0.20;;;;;;;20.71;100.00;101371.31;10358230;28;20041;-84
2023/09/17 01:02:30;;;;;;;0.30;0.30;;;;;;;20.41;100.00;101352.38;10381977;28;20049;-84
2023/09/17 01:07:33;;;;;;;0.08;0.08;;;;;;;21.27;100.00;101365.53;10373916;28;20049;-82
2023/09/17 01:12:35;;;;;;;4.22;0.52;;;;;;;20.77;100.00;101359.03;10364466;28;20105;-82
2023/09/17 01:17:38;;;;;;;0.30;0.30;;;;;;;21.16;100.00;101344.69;10380473;28;20045;-81
2023/09/17 01:22:45;;;;;;;0.20;0.10;;;;;;;21.25;100.00;101341.97;10380969;28;20050;-81
2023/09/17 01:27:48;;;;;;;0.10;0.10;;;;;;;20.89;100.00;101342.34;10364476;28;20131;-81
2023/09/17 01:32:49;;;;;;;0.47;0.13;;;;;;;21.46;100.00;101324.25;10380310;28;20046;-80
2023/09/17 01:38:00;;;;;;;0.25;0.25;;;;;;;20.23;100.00;101309.75;10358306;28;20136;-81
2023/09/17 01:43:02;;;;;;;0.15;0.15;;;;;;;20.87;100.00;101312.72;10353323;28;20177;-81
2023/09/17 01:48:04;;;;;;;0.15;0.15;;;;;;;20.68;100.00;101318.97;10367345;28;20042;-81
2023/09/17 01:53:06;;;;;;;0.40;0.35;;;;;;;21.02;100.00;101308.19;10357727;28;20041;-81
2023/09/17 01:58:10;;;;;;;0.77;0.22;;;;;;;20.90;100.00;101317.91;10364478;28;20914;-81
2023/09/17 02:03:11;;;;;;;1.65;1.05;;;;;;;19.93;100.00;101337.84;10346930;28;20077;-81
2023/09/17 02:08:14;;;;;;;0.32;0.32;;;;;;;20.36;100.00;101341.06;10366320;28;20045;-81
2023/09/17 02:13:15;;;;;;;0.43;0.43;;;;;;;20.06;100.00;101322.09;10367283;28;20056;-80
2023/09/17 02:18:17;;;;;;;0.40;0.32;;;;;;;20.26;100.00;101314.09;10382293;28;20131;-80
2023/09/17 02:23:19;;;;;;;1.50;0.55;;;;;;;19.72;100.00;101302.25;10351454;28;20053;-79
2023/09/17 02:28:20;;;;;;;2.72;0.98;;;;;;;20.20;100.00;101317.66;10377692;28;20046;-80
2023/09/17 02:33:22;;;;;;;10.48;1.13;;;;;;;20.00;100.00;101306.44;10378111;28;20046;-80
2023/09/17 02:38:25;;;;;;;0.63;0.38;;;;;;;20.08;100.00;101304.63;10379152;28;20581;-81
2023/09/17 02:43:29;;;;;;;0.55;0.43;;;;;;;19.91;100.00;101292.56;10379607;28;20053;-80
2023/09/17 02:48:34;;;;;;;1.30;0.80;;;;;;;19.74;100.00;101291.75;10332355;28;20489;-80
2023/09/17 02:53:36;;;;;;;1.08;0.75;;;;;;;20.21;100.00;101287.09;10356401;28;20513;-81
2023/09/17 02:58:38;;;;;;;1.60;0.77;;;;;;;19.97;100.00;101271.59;10363338;28;20046;-81
2023/09/17 03:03:40;;;;;;;1.48;0.43;;;;;;;20.58;100.00;101269.34;10381197;28;20652;-81
2023/09/17 03:08:42;;;;;;;0.45;0.25;;;;;;;20.28;100.00;101270.47;10359781;28;20108;-81
2023/09/17 03:13:46;;;;;;;0.98;0.50;;;;;;;20.38;100.00;101250.31;10390672;28;20053;-81
2023/09/17 03:18:48;;;;;;;1.10;0.73;;;;;;;20.34;100.00;101225.94;10358795;28;20493;-81
2023/09/17 03:23:51;;;;;;;0.32;0.20;;;;;;;20.08;100.00;101236.63;10370572;28;20057;-81
2023/09/17 03:28:54;;;;;;;0.70;0.50;;;;;;;20.22;100.00;101224.31;10358419;28;20188;-81
2023/09/17 03:33:57;;;;;;;0.75;0.43;;;;;;;20.09;100.00;101217.44;10355340;28;20050;-82
2023/09/17 03:38:59;;;;;;;0.88;0.68;;;;;;;20.18;100.00;101217.38;10378840;28;20046;-81
2023/09/17 03:44:02;;;;;;;0.50;0.47;;;;;;;20.65;100.00;101224.78;10369282;28;20144;-82
2023/09/17 03:49:04;;;;;;;0.65;0.57;;;;;;;20.39;100.00;101210.19;10368201;28;20048;-81
2023/09/17 03:54:06;;;;;;;0.22;0.13;;;;;;;20.51;100.00;101212.69;10363901;28;20042;-81
2023/09/17 03:59:08;;;;;;;1.02;0.50;;;;;;;20.97;100.00;101234.91;10362822;28;20496;-81
2023/09/17 04:04:10;;;;;;;0.63;0.45;;;;;;;20.99;100.00;101237.50;10370166;28;20038;-81
2023/09/17 04:09:13;;;;;;;0.20;0.20;;;;;;;20.90;100.00;101234.09;10354732;28;20046;-81
2023/09/17 04:14:15;;;;;;;0.93;0.73;;;;;;;20.82;100.00;101225.47;10393366;28;20527;-82
2023/09/17 04:19:16;;;;;;;2.13;0.30;;;;;;;20.92;100.00;101216.63;10371790;28;20141;-82
2023/09/17 04:24:19;;;;;;;0.20;0.20;;;;;;;20.56;100.00;101203.03;10384516;28;20041;-82
2023/09/17 04:29:21;;;;;;;1.02;0.95;;;;;;;21.00;100.00;101219.13;10385476;28;20088;-83
2023/09/17 04:34:23;;;;;;;2.75;0.60;;;;;;;20.57;100.00;101212.63;10367488;28;20497;-83
2023/09/17 04:39:25;;;;;;;0.50;0.43;;;;;;;20.63;100.00;101205.59;10370562;28;20100;-83
2023/09/17 04:44:28;;;;;;;1.75;0.73;;;;;;;20.53;100.00;101200.44;10390590;28;20114;-82
2023/09/17 04:49:31;;;;;;;0.47;0.43;;;;;;;20.65;100.00;101202.06;10367981;28;20042;-82
2023/09/17 04:54:33;;;;;;;1.55;1.05;;;;;;;21.06;100.00;101212.94;10391778;28;20054;-81
2023/09/17 04:59:35;;;;;;;0.30;0.15;;;;;;;20.97;100.00;101219.19;10411175;28;20093;-82
2023/09/17 05:04:37;;;;;;;1.88;0.82;;;;;;;20.60;100.00;101204.72;10401530;28;20060;-81
2023/09/17 05:09:38;;;;;;;1.45;0.75;;;;;;;20.50;100.00;101197.00;10383585;28;20038;-81
2023/09/17 05:14:40;;;;;;;1.48;0.52;;;;;;;21.07;100.00;101212.06;10384343;28;20069;-82
2023/09/17 05:19:44;;;;;;;4.47;0.80;;;;;;;20.73;100.00;101204.66;10384123;28;20077;-81
2023/09/17 05:24:46;;;;;;;0.40;0.40;;;;;;;21.05;100.00;101211.22;10398267;28;20050;-81
2023/09/17 05:29:48;;;;;;;0.08;0.05;;;;;;;20.05;100.00;101194.84;10375489;28;20049;-81
2023/09/17 05:34:50;;;;;;;0.10;0.10;;;;;;;20.82;100.00;101225.47;10364892;28;20073;-81
2023/09/17 05:39:52;;;;;;;0.57;0.22;;;;;;;20.75;100.00;101222.06;10390694;28;20103;-82
2023/09/17 05:44:54;;;;;;;1.00;0.65;;;;;;;20.63;100.00;101213.44;10384879;28;20100;-82
2023/09/17 05:49:59;;;;;;;0.38;0.30;;;;;;;20.39;100.00;101195.38;10389992;28;20042;-82
2023/09/17 05:55:05;;;;;;;1.65;0.35;;;;;;;20.06;100.00;101193.94;10397370;28;20046;-82
2023/09/17 06:00:08;;;;;;;0.35;0.20;;;;;;;19.79;100.00;101182.81;10404678;28;20034;-82
2023/09/17 06:05:15;;;;;;;0.45;0.32;;;;;;;20.03;100.00;101184.38;10378861;28;20397;-82
2023/09/17 06:10:17;;;;;;;0.30;0.30;;;;;;;20.10;100.00;101190.41;10419113;28;20042;-83
2023/09/17 06:15:19;;;;;;;0.55;0.45;;;;;;;20.34;100.00;101191.06;10376563;28;20492;-83
2023/09/17 06:20:21;;;;;;;0.20;0.20;;;;;;;20.21;100.00;101185.97;10352243;28;20124;-83
2023/09/17 06:25:23;;;;;;;0.43;0.35;;;;;;;20.47;100.00;101184.81;10370130;28;20058;-83
2023/09/17 06:30:25;;;;;;;0.93;0.25;;;;;;;20.51;100.00;101175.19;10363608;28;20441;-83
2023/09/17 06:35:27;;;;;;;0.52;0.52;;;;;;;21.02;100.00;101179.84;10379846;28;20054;-82
2023/09/17 06:40:29;;;;;;;0.90;0.80;;;;;;;21.42;100.00;101191.50;10376958;28;20052;-83
2023/09/17 06:45:31;;;;;;;0.98;0.82;;;;;;;21.53;100.00;101195.72;10361181;28;20148;-83
2023/09/17 06:50:32;;;;;;;0.73;0.52;;;;;;;21.66;100.00;101192.91;10359058;28;20048;-83
2023/09/17 06:55:34;;;;;;;0.10;0.10;;;;;;;21.35;100.00;101204.72;10344733;28;20073;-82
2023/09/17 07:00:36;;;;;;;6.72;0.75;;;;;;;21.99;100.00;101193.28;10359568;28;20046;-82
2023/09/17 07:05:38;;;;;;;0.70;0.47;;;;;;;21.95;100.00;101197.72;10345502;28;20058;-83
2023/09/17 07:10:39;;;;;;;0.60;0.38;;;;;;;21.05;100.00;101183.28;10364178;28;20045;-83
2023/09/17 07:15:43;;;;;;;0.77;0.40;;;;;;;22.47;100.00;101193.28;10384234;28;20104;-84
2023/09/17 07:20:49;;;;;;;0.82;0.68;;;;;;;23.10;100.00;101193.78;10380017;28;20049;-83
2023/09/17 07:25:54;;;;;;;0.93;0.65;;;;;;;23.04;100.00;101191.28;10369493;28;20132;-84
2023/09/17 07:30:56;;;;;;;0.50;0.43;;;;;;;22.39;100.00;101189.94;10385157;28;20050;-84
2023/09/17 07:35:58;;;;;;;1.60;1.05;;;;;;;22.72;100.00;101187.56;10387411;28;20046;-84
2023/09/17 07:41:00;;;;;;;1.17;1.08;;;;;;;22.73;100.00;101184.06;10396720;28;20045;-84
2023/09/17 07:46:01;;;;;;;0.90;0.55;;;;;;;23.01;100.00;101188.72;10408469;28;20103;-83
2023/09/17 07:51:04;;;;;;;0.32;0.20;;;;;;;22.87;100.00;101180.25;10387577;28;20053;-82
2023/09/17 07:56:06;;;;;;;1.27;0.47;;;;;;;22.11;100.00;101179.94;10389969;28;20073;-84
2023/09/17 08:01:08;;;;;;;0.40;0.40;;;;;;;22.80;100.00;101192.66;10388660;28;20533;-84
2023/09/17 08:06:11;;;;;;;0.80;0.50;;;;;;;22.80;100.00;101196.16;10405662;28;20057;-84
2023/09/17 08:11:15;;;;;;;1.98;0.50;;;;;;;22.77;100.00;101185.69;10393851;28;20046;-84
2023/09/17 08:16:19;;;;;;;1.58;0.52;;;;;;;22.68;100.00;101185.88;10397401;28;20034;-84
2023/09/17 08:21:21;;;;;;;1.05;0.70;;;;;;;22.77;100.00;101190.09;10412191;28;20046;-83
2023/09/17 08:26:23;;;;;;;1.50;0.47;;;;;;;23.67;100.00;101209.19;10385803;28;20068;-85
2023/09/17 08:31:25;;;;;;;0.60;0.50;;;;;;;23.53;100.00;101201.59;10399579;28;20045;-84
2023/09/17 08:36:27;;;;;;;0.50;0.50;;;;;;;23.41;100.00;101194.88;10380132;28;20049;-84
2023/09/17 08:41:29;;;;;;;0.40;0.20;;;;;;;23.68;100.00;101198.63;10365731;28;20054;-84
2023/09/17 08:46:31;;;;;;;0.55;0.50;;;;;;;24.02;100.00;101187.25;10363611;28;20493;-84
2023/09/17 08:51:37;;;;;;;0.75;0.60;;;;;;;23.56;100.00;101201.56;10381933;28;20073;-84
2023/09/17 08:56:42;;;;;;;0.32;0.32;;;;;;;23.64;100.00;101202.25;10393897;28;20210;-84
2023/09/17 09:01:47;;;;;;;1.55;0.63;;;;;;;24.57;100.00;101201.63;10357635;28;20180;-85
2023/09/17 09:06:50;;;;;;;0.40;0.40;;;;;;;24.91;100.00;101205.97;10374704;28;20065;-84
2023/09/17 09:11:52;;;;;;;1.48;0.52;;;;;;;24.66;100.00;101198.72;10360254;28;20061;-85
2023/09/17 09:16:54;;;;;;;0.93;0.80;;;;;;;24.76;100.00;101202.00;10366345;28;20057;-85
2023/09/17 09:21:55;;;;;;;3.17;1.88;;;;;;;24.12;100.00;101205.47;10401485;28;20046;-85
2023/09/17 09:26:58;;;;;;;0.95;0.70;;;;;;;24.66;100.00;101204.91;10368113;28;20402;-84
2023/09/17 09:32:00;;;;;;;1.35;1.05;;;;;;;25.15;100.00;101209.63;10373766;28;20031;-85
2023/09/17 09:37:09;;;;;;;0.95;0.73;;;;;;;25.75;100.00;101209.53;10358669;28;20046;-84
2023/09/17 09:42:11;;;;;;;2.92;1.17;;;;;;;25.54;100.00;101209.34;10369989;28;20038;-85
2023/09/17 09:47:14;;;;;;;1.73;1.35;;;;;;;25.36;100.00;101202.84;10364559;28;20415;-84
2023/09/17 09:52:16;;;;;;;0.65;0.60;;;;;;;25.42;100.00;101207.94;10382787;28;20393;-84
2023/09/17 09:57:19;;;;;;;0.95;0.73;;;;;;;25.08;100.00;101208.97;10332545;28;20056;-84
2023/09/17 10:02:21;;;;;;;1.20;0.98;;;;;;;25.58;100.00;101205.69;10358479;28;20045;-85
2023/09/17 10:07:25;;;;;;;0.60;0.35;;;;;;;26.68;100.00;101211.66;10367818;28;20049;-84
2023/09/17 10:12:27;;;;;;;2.03;1.40;;;;;;;25.80;100.00;101213.75;10381917;28;20142;-85
2023/09/17 10:17:30;;;;;;;2.47;1.27;;;;;;;25.16;100.00;101206.97;10373017;28;20046;-86
2023/09/17 10:22:35;;;;;;;1.73;1.05;;;;;;;25.38;100.00;101202.78;10353040;28;20048;-85
2023/09/17 10:27:37;;;;;;;3.88;1.33;;;;;;;25.90;100.00;101195.84;10390175;28;20465;-85
2023/09/17 10:32:40;;;;;;;1.27;0.90;;;;;;;26.17;100.00;101185.28;10380182;28;20144;-86
2023/09/17 10:37:43;;;;;;;2.45;2.00;;;;;;;25.87;100.00;101192.44;10363344;28;20046;-87
2023/09/17 10:42:47;;;;;;;1.58;1.25;;;;;;;26.69;100.00;101184.31;10379298;28;20577;-85
2023/09/17 10:47:51;;;;;;;1.45;1.15;;;;;;;26.51;100.00;101175.31;10367481;28;20039;-85
2023/09/17 10:52:53;;;;;;;5.30;2.88;;;;;;;25.85;100.00;101174.03;10377556;28;20135;-84
2023/09/17 10:58:13;;;;;;;2.47;1.70;;;;;;;25.54;100.00;101167.13;10399384;28;20096;-84
2023/09/17 11:03:19;;;;;;;1.85;1.20;;;;;;;27.31;100.00;101174.91;10395700;28;20084;-84
2023/09/17 11:08:21;;;;;;;2.38;1.33;;;;;;;26.43;100.00;101175.56;10387037;28;20066;-86
2023/09/17 11:13:24;;;;;;;2.33;1.23;;;;;;;27.29;100.00;101175.88;10383840;28;20078;-86
2023/09/17 11:18:26;;;;;;;4.05;2.17;;;;;;;26.62;100.00;101165.19;10379150;28;20046;-85
2023/09/17 11:23:57;;;;;;;2.13;1.45;;;;;;;26.54;100.00;101165.47;10383298;28;20080;-85
2023/09/17 11:28:58;;;;;;;1.75;1.65;;;;;;;26.38;100.00;101172.25;10378617;28;20046;-86
2023/09/17 11:34:04;;;;;;;1.45;1.00;;;;;;;26.81;100.00;101170.66;10394655;28;20112;-85
2023/09/17 11:39:07;;;;;;;1.55;1.38;;;;;;;26.15;100.00;101176.56;10377070;28;20160;-87
2023/09/17 11:44:08;;;;;;;5.10;1.23;;;;;;;27.21;100.00;101169.13;10393715;28;20048;-86
2023/09/17 11:49:11;;;;;;;1.80;0.98;;;;;;;28.32;100.00;101168.94;10383160;28;20034;-85
2023/09/17 11:54:18;;;;;;;2.35;1.73;;;;;;;27.58;100.00;101182.66;10386355;28;20060;-83
2023/09/17 11:59:21;;;;;;;2.22;1.40;;;;;;;28.22;100.00;101172.06;10407565;28;20579;-83
2023/09/17 12:04:25;;;;;;;1.27;1.02;;;;;;;28.22;100.00;101177.34;10397111;28;20053;-83
2023/09/17 12:14:32;;;;;;;0.57;0.57;;;;;;;27.24;100.00;101178.72;10376793;28;20050;-84
2023/09/17 12:19:34;;;;;;;0.93;0.70;;;;;;;27.60;100.00;101191.41;10392813;28;20041;-84
2023/09/17 12:24:59;;;;;;;0.77;0.55;;;;;;;27.99;100.00;101172.13;10387453;28;20172;-85
2023/09/17 12:30:05;;;;;;;0.38;0.32;;;;;;;28.58;100.00;101184.59;10368125;28;20053;-84
2023/09/17 12:35:07;;;;;;;0.88;0.50;;;;;;;29.10;100.00;101195.44;10353445;28;20053;-84
2023/09/17 12:40:09;;;;;;;3.80;0.98;;;;;;;27.30;100.00;101182.88;10390389;28;20045;-84
2023/09/17 12:45:10;;;;;;;2.25;1.08;;;;;;;27.77;100.00;101184.56;10372707;28;20041;-85
2023/09/17 12:50:12;;;;;;;0.45;0.40;;;;;;;28.74;100.00;101185.63;10344751;28;20045;-83
2023/09/17 12:55:14;;;;;;;0.82;0.52;;;;;;;26.98;100.00;101185.03;10370508;28;20050;-84
2023/09/17 13:00:16;;;;;;;0.52;0.30;;;;;;;27.25;100.00;101185.72;10380228;28;20064;-84
2023/09/17 13:05:19;;;;;;;0.93;0.38;;;;;;;27.45;100.00;101184.94;10357851;28;20053;-83
2023/09/17 13:10:21;;;;;;;0.70;0.25;;;;;;;27.46;100.00;101168.13;10387054;28;20049;-86
2023/09/17 13:15:26;;;;;;;0.52;0.30;;;;;;;28.44;100.00;101167.53;10349139;28;20053;-85
2023/09/17 13:20:28;;;;;;;0.00;0.00;;;;;;;28.21;100.00;101155.31;10368321;28;20125;-84
2023/09/17 13:25:29;;;;;;;0.75;0.55;;;;;;;28.70;100.00;101168.16;10368584;28;20041;-84
2023/09/17 13:30:31;;;;;;;0.77;0.45;;;;;;;29.17;100.00;101160.66;10370067;28;20061;-83
2023/09/17 13:35:33;;;;;;;0.50;0.25;;;;;;;29.09;100.00;101153.94;10375023;28;20052;-85
2023/09/17 13:40:42;;;;;;;0.10;0.10;;;;;;;28.95;100.00;101156.38;10366104;28;20050;-84
2023/09/17 13:45:55;;;;;;;0.45;0.30;;;;;;;29.83;100.00;101143.25;10373192;28;20406;-83
2023/09/17 13:50:57;;;;;;;0.38;0.38;;;;;;;29.15;100.00;101157.25;10359170;28;20164;-82
2023/09/17 13:55:59;;;;;;;0.32;0.30;;;;;;;30.01;100.00;101145.00;10373112;28;20052;-85
2023/09/17 14:01:01;;;;;;;0.10;0.10;;;;;;;28.95;100.00;101149.31;10370923;28;20160;-84
2023/09/17 14:06:03;;;;;;;0.20;0.20;;;;;;;30.33;100.00;101147.75;10348603;28;20049;-83
2023/09/17 14:11:04;;;;;;;0.30;0.25;;;;;;;28.92;100.00;101152.09;10357187;28;20041;-84
2023/09/17 14:16:06;;;;;;;2.35;0.30;;;;;;;30.09;100.00;101149.91;10372256;28;20469;-83
2023/09/17 14:21:08;;;;;;;0.60;0.40;;;;;;;28.65;100.00;101133.00;10372978;28;20062;-82
2023/09/17 14:26:09;;;;;;;0.55;0.50;;;;;;;29.05;100.00;101135.59;10377992;28;20037;-83
2023/09/17 14:31:11;;;;;;;0.52;0.20;;;;;;;28.27;100.00;101135.63;10385527;28;20047;-84
2023/09/17 14:36:13;;;;;;;0.20;0.10;;;;;;;29.26;100.00;101139.88;10377779;28;20046;-83
2023/09/17 14:41:15;;;;;;;0.47;0.45;;;;;;;28.03;100.00;101130.47;10364918;28;20424;-82
2023/09/17 14:46:16;;;;;;;0.40;0.40;;;;;;;28.00;100.00;101127.94;10373512;28;20057;-84
2023/09/17 14:51:18;;;;;;;0.40;0.20;;;;;;;28.50;100.00;101132.78;10364586;28;20041;-85
2023/09/17 14:56:20;;;;;;;0.20;0.20;;;;;;;28.02;100.00;101119.00;10369301;28;20046;-84
2023/09/17 15:01:22;;;;;;;0.63;0.25;;;;;;;28.13;100.00;101115.06;10358892;28;20050;-83
2023/09/17 15:06:43;;;;;;;2.05;0.40;;;;;;;28.10;100.00;101108.13;10377845;28;20482;-83
2023/09/17 15:11:46;;;;;;;0.45;0.30;;;;;;;28.17;100.00;101120.16;10380850;28;20532;-83
2023/09/17 15:16:47;;;;;;;0.75;0.30;;;;;;;28.12;100.00;101122.13;10350656;28;20056;-84
2023/09/17 15:21:49;;;;;;;0.82;0.82;;;;;;;28.02;100.00;101115.50;10364267;28;20073;-83
2023/09/17 15:26:51;;;;;;;0.28;0.28;;;;;;;28.08;100.00;101112.63;10372864;28;20409;-84
2023/09/17 15:31:54;;;;;;;0.70;0.35;;;;;;;27.93;100.00;101102.66;10342580;28;20042;-82
2023/09/17 15:37:21;;;;;;;0.60;0.35;;;;;;;27.59;100.00;101112.09;10360752;28;20042;-82
2023/09/17 15:42:23;;;;;;;1.10;0.85;;;;;;;28.02;100.00;101112.88;10336356;28;20133;-83
2023/09/17 15:47:25;;;;;;;0.32;0.30;;;;;;;28.21;100.00;101122.66;10375315;28;20057;-84
2023/09/17 15:52:27;;;;;;;1.27;0.40;;;;;;;27.70;100.00;101113.31;10388973;28;20461;-84
2023/09/17 15:57:28;;;;;;;0.20;0.20;;;;;;;28.16;100.00;101110.50;10388413;28;20054;-84
2023/09/17 16:02:30;;;;;;;0.75;0.55;;;;;;;28.15;100.00;101108.78;10379259;28;20131;-84
2023/09/17 16:07:34;;;;;;;2.88;0.82;;;;;;;28.43;100.00;101107.50;10386090;28;20072;-84
2023/09/17 16:12:35;;;;;;;0.43;0.32;;;;;;;29.20;100.00;101107.47;10380437;28;20452;-84
2023/09/17 16:17:37;;;;;;;0.10;0.10;;;;;;;29.01;100.00;101103.03;10387921;28;20049;-83
2023/09/17 16:22:39;;;;;;;0.00;0.00;;;;;;;29.02;100.00;101103.91;10385981;28;20050;-84
2023/09/17 16:27:41;;;;;;;0.38;0.08;;;;;;;29.18;100.00;101109.31;10374187;28;20539;-84
2023/09/17 16:32:43;;;;;;;0.00;0.00;;;;;;;29.08;100.00;101107.13;10369175;28;20065;-83
2023/09/17 16:37:45;;;;;;;0.08;0.08;;;;;;;29.27;100.00;101116.84;10369056;28;20038;-84
2023/09/17 16:42:47;;;;;;;0.00;0.00;;;;;;;28.98;100.00;101119.13;10385552;28;20592;-84
2023/09/17 16:48:09;;;;;;;0.10;0.10;;;;;;;29.28;100.00;101100.00;10363276;28;20069;-84
2023/09/17 16:53:11;;;;;;;0.00;0.00;;;;;;;29.06;100.00;101095.75;10367480;28;20057;-84
2023/09/17 16:58:17;;;;;;;0.17;0.17;;;;;;;28.89;100.00;101095.69;10349993;28;20042;-84
2023/09/17 17:03:42;;;;;;;0.63;0.28;;;;;;;28.64;100.00;101096.81;10385937;28;20029;-83
2023/09/17 17:08:44;;;;;;;0.00;0.00;;;;;;;28.56;100.00;101096.34;10368123;28;20482;-83
2023/09/17 17:13:47;;;;;;;0.00;0.00;;;;;;;27.97;100.00;101083.06;10376585;28;20573;-83
2023/09/17 17:18:48;;;;;;;0.00;0.00;;;;;;;28.49;100.00;101080.72;10375138;28;20042;-84
2023/09/17 17:23:50;;;;;;;0.00;0.00;;;;;;;28.39;100.00;101079.44;10385430;28;20394;-84
2023/09/17 17:28:52;;;;;;;0.30;0.00;;;;;;;27.85;100.00;101064.16;10366288;28;20134;-83
2023/09/17 17:33:54;;;;;;;0.00;0.00;;;;;;;27.89;100.00;101064.03;10385097;28;20069;-84
2023/09/17 17:38:56;;;;;;;0.00;0.00;;;;;;;28.33;100.00;101055.88;10365508;28;20046;-84
2023/09/17 17:43:59;;;;;;;0.00;0.00;;;;;;;27.60;100.00;101055.56;10383471;28;20565;-83
2023/09/17 17:49:01;;;;;;;0.40;0.22;;;;;;;27.89;100.00;101045.50;10354148;28;20046;-84
2023/09/17 17:54:03;;;;;;;0.00;0.00;;;;;;;27.70;100.00;101041.00;10383797;28;20057;-83
2023/09/17 17:59:05;;;;;;;0.00;0.00;;;;;;;27.34;100.00;101037.19;10347865;28;20049;-84
2023/09/17 18:04:06;;;;;;;0.00;0.00;;;;;;;27.18;100.00;101026.44;10361411;28;20037;-83
2023/09/17 18:09:09;;;;;;;0.00;0.00;;;;;;;27.34;100.00;101025.78;10358421;28;20357;-83
2023/09/17 18:14:10;;;;;;;0.00;0.00;;;;;;;26.86;100.00;101020.69;10375731;28;20068;-84
2023/09/17 18:19:12;;;;;;;0.00;0.00;;;;;;;26.79;100.00;101011.28;10369138;28;20045;-83
2023/09/17 18:24:14;;;;;;;0.55;0.05;;;;;;;26.91;100.00;101010.78;10370616;28;20057;-83
2023/09/17 18:29:16;;;;;;;0.35;0.20;;;;;;;26.86;100.00;101010.09;10365586;28;20133;-83
2023/09/17 18:34:18;;;;;;;0.20;0.10;;;;;;;26.83;100.00;101012.88;10386010;28;20058;-83
2023/09/17 18:39:19;;;;;;;0.00;0.00;;;;;;;26.59;100.00;101007.63;10368488;28;20050;-83
2023/09/17 18:44:21;;;;;;;0.08;0.08;;;;;;;26.52;100.00;101006.16;10367295;28;20047;-83
2023/09/17 18:49:23;;;;;;;0.00;0.00;;;;;;;25.94;100.00;100983.69;10374349;28;20073;-83
2023/09/17 18:54:24;;;;;;;0.45;0.38;;;;;;;25.22;100.00;100988.84;10370651;28;20103;-82
2023/09/17 18:59:26;;;;;;;0.55;0.52;;;;;;;25.53;100.00;100983.41;10376725;28;20042;-82
2023/09/17 19:04:29;;;;;;;0.20;0.10;;;;;;;25.94;100.00;100983.69;10380001;28;20054;-83
2023/09/17 19:09:30;;;;;;;0.38;0.30;;;;;;;26.11;100.00;100995.41;10350103;28;20557;-83
2023/09/17 19:14:33;;;;;;;0.32;0.30;;;;;;;26.06;100.00;100989.41;10378882;28;20489;-83
2023/09/17 19:19:34;;;;;;;0.20;0.20;;;;;;;25.86;100.00;100975.19;10407425;28;20409;-84
2023/09/17 19:24:36;;;;;;;0.45;0.17;;;;;;;26.13;100.00;100969.81;10385005;28;20053;-83
2023/09/17 19:29:38;;;;;;;0.80;0.25;;;;;;;25.88;100.00;100952.22;10380514;28;20416;-84
2023/09/17 19:34:40;;;;;;;0.05;0.05;;;;;;;25.74;100.00;100949.22;10392989;28;20057;-83
2023/09/17 19:39:41;;;;;;;0.20;0.10;;;;;;;26.11;100.00;100953.16;10348127;28;20045;-84
2023/09/17 19:44:43;;;;;;;1.10;0.30;;;;;;;26.17;100.00;100963.50;10373163;28;20048;-83
2023/09/17 19:49:45;;;;;;;0.03;0.00;;;;;;;26.01;100.00;100951.78;10388514;28;20489;-83
2023/09/17 19:54:46;;;;;;;0.05;0.05;;;;;;;26.18;100.00;100948.50;10390193;28;20107;-84
2023/09/17 19:59:48;;;;;;;0.10;0.10;;;;;;;26.01;100.00;100957.06;10374179;28;20058;-84
2023/09/17 20:04:50;;;;;;;0.70;0.38;;;;;;;25.31;100.00;100968.28;10409514;28;20072;-84
2023/09/17 20:09:51;;;;;;;0.55;0.20;;;;;;;25.70;100.00;100966.09;10388808;28;20065;-84
2023/09/17 20:14:53;;;;;;;0.00;0.00;;;;;;;24.91;100.00;100952.97;10388129;28;20069;-84
2023/09/17 20:19:55;;;;;;;0.00;0.00;;;;;;;24.84;100.00;100934.75;10392883;28;20137;-84
2023/09/17 20:24:57;;;;;;;0.43;0.05;;;;;;;24.84;100.00;100925.97;10411049;28;20132;-84
2023/09/17 20:30:00;;;;;;;0.00;0.00;;;;;;;24.88;100.00;100922.34;10387402;28;20101;-84
2023/09/17 20:35:03;;;;;;;0.00;0.00;;;;;;;25.17;100.00;100928.38;10377071;28;20503;-84
2023/09/17 20:40:05;;;;;;;0.15;0.10;;;;;;;25.00;100.00;100924.53;10356931;28;20054;-85
2023/09/17 20:45:07;;;;;;;0.10;0.10;;;;;;;24.94;100.00;100932.66;10374819;28;20045;-85
2023/09/17 20:50:09;;;;;;;0.00;0.00;;;;;;;24.68;100.00;100925.63;10370936;28;20050;-85
2023/09/17 20:55:11;;;;;;;0.25;0.00;;;;;;;24.38;100.00;100923.03;10387762;28;20048;-84
2023/09/17 21:00:13;;;;;;;0.05;0.00;;;;;;;24.96;100.00;100930.84;10374227;28;20041;-85
2023/09/17 21:05:15;;;;;;;0.10;0.10;;;;;;;24.84;100.00;100931.22;10362148;28;20054;-85
2023/09/17 21:10:17;;;;;;;0.00;0.00;;;;;;;24.70;100.00;100937.81;10359921;28;20050;-85
2023/09/17 21:15:18;;;;;;;0.10;0.10;;;;;;;24.52;100.00;100930.50;10384020;28;20050;-85
2023/09/17 21:20:20;;;;;;;0.20;0.20;;;;;;;24.08;100.00;100931.84;10387228;28;20046;-85
2023/09/17 21:25:22;;;;;;;0.65;0.30;;;;;;;24.12;100.00;100924.72;10392263;28;20078;-84
2023/09/17 21:30:23;;;;;;;0.00;0.00;;;;;;;24.51;100.00;100898.03;10367478;28;20037;-84
2023/09/17 21:35:25;;;;;;;0.57;0.43;;;;;;;24.68;100.00;100894.88;10382225;28;20072;-85
2023/09/17 21:40:27;;;;;;;0.10;0.10;;;;;;;24.68;100.00;100901.91;10362361;28;20085;-85
2023/09/17 21:45:29;;;;;;;0.00;0.00;;;;;;;24.29;100.00;100903.13;10380984;28;20064;-85
2023/09/17 21:50:30;;;;;;;0.08;0.08;;;;;;;24.63;100.00;100883.59;10367908;28;20056;-85
2023/09/17 21:55:32;;;;;;;0.00;0.00;;;;;;;24.33;100.00;100874.94;10364521;28;20077;-85
2023/09/17 22:00:34;;;;;;;0.55;0.25;;;;;;;24.58;100.00;100874.13;10364008;28;20052;-86
2023/09/17 22:05:37;;;;;;;0.05;0.05;;;;;;;23.92;100.00;100867.41;10366000;28;20061;-85
2023/09/17 22:10:39;;;;;;;0.20;0.17;;;;;;;24.33;100.00;100838.94;10350398;28;20440;-84
2023/09/17 22:15:40;;;;;;;0.22;0.22;;;;;;;24.97;100.00;100842.97;10384063;28;20050;-85
2023/09/17 22:20:42;;;;;;;0.70;0.30;;;;;;;24.98;100.00;100839.38;10352389;28;20473;-85
2023/09/17 22:25:44;;;;;;;0.65;0.30;;;;;;;25.00;100.00;100837.56;10357761;28;20509;-85
2023/09/17 22:30:46;;;;;;;0.10;0.10;;;;;;;24.82;100.00;100817.16;10364012;28;20034;-85
2023/09/17 22:35:47;;;;;;;0.40;0.40;;;;;;;25.02;100.00;100809.38;10358697;28;20052;-85
2023/09/17 22:40:49;;;;;;;0.10;0.10;;;;;;;24.78;100.00;100797.09;10364884;28;20054;-84
2023/09/17 22:45:51;;;;;;;0.20;0.20;;;;;;;24.88;100.00;100785.31;10379126;28;20160;-84
2023/09/17 22:50:54;;;;;;;0.15;0.15;;;;;;;25.01;100.00;100765.50;10360367;28;20127;-84
2023/09/17 22:55:55;;;;;;;0.13;0.10;;;;;;;24.96;100.00;100756.91;10386603;28;20063;-84
2023/09/17 23:00:58;;;;;;;0.30;0.20;;;;;;;25.15;100.00;100761.47;10380307;28;20052;-85